Time;durP1;ratioP1;P1;durP2;ratioP2;P2;SDS_P1;SDS_P2;PMS_P1;PMS_P2;Temp;Humidity;BMP_temperature;BMP_pressure;BME280_temperature;BME280_humidity;BME280_pressure;Samples;Min_cycle;Max_cycle;Signal;HPM_P1;HPM_P2
2022/02/24 00:00:53;;;;;;;11.40;2.63;;;8.70;77.40;;;;;;5043736;28;20057;-70
2022/02/24 00:03:18;;;;;;;6.68;2.53;;;8.70;77.50;;;;;;5038156;28;20061;-70
2022/02/24 00:05:44;;;;;;;10.13;2.33;;;8.70;77.60;;;;;;5048045;28;20493;-71
2022/02/24 00:08:10;;;;;;;7.95;2.38;;;8.70;77.90;;;;;;5047051;28;20358;-70
2022/02/24 00:10:35;;;;;;;9.15;2.30;;;8.70;78.10;;;;;;5045721;28;20104;-70
2022/02/24 00:13:01;;;;;;;10.38;2.72;;;8.70;78.40;;;;;;5043087;28;20032;-70
2022/02/24 00:15:26;;;;;;;9.75;2.60;;;8.60;78.70;;;;;;5042375;28;20100;-69
2022/02/24 00:17:52;;;;;;;9.77;2.65;;;8.60;78.90;;;;;;5048350;28;20537;-70
2022/02/24 00:20:17;;;;;;;8.57;2.97;;;8.60;79.10;;;;;;5043068;28;20021;-69
2022/02/24 00:22:44;;;;;;;8.55;2.45;;;8.60;79.30;;;;;;5048249;28;20367;-69
2022/02/24 00:25:10;;;;;;;6.15;2.40;;;8.60;79.60;;;;;;5047561;28;20070;-69
2022/02/24 00:27:36;;;;;;;10.45;3.08;;;8.60;80.00;;;;;;5046308;28;20036;-69
2022/02/24 00:30:03;;;;;;;8.50;2.58;;;8.60;80.30;;;;;;5042492;28;20385;-69
2022/02/24 00:32:29;;;;;;;10.13;2.42;;;8.50;80.80;;;;;;5050861;28;20036;-69
2022/02/24 00:34:54;;;;;;;7.07;2.58;;;8.50;81.10;;;;;;5049591;28;20024;-70
2022/02/24 00:37:20;;;;;;;6.15;2.35;;;8.40;81.10;;;;;;5043093;28;20030;-69
2022/02/24 00:39:45;;;;;;;6.50;2.53;;;8.40;81.20;;;;;;5044761;28;20102;-70
2022/02/24 00:42:11;;;;;;;11.60;3.92;;;8.50;81.20;;;;;;5044775;28;20049;-69
2022/02/24 00:44:37;;;;;;;8.98;3.40;;;8.50;81.50;;;;;;5046241;28;20033;-70
2022/02/24 00:47:03;;;;;;;8.63;2.92;;;8.40;82.50;;;;;;5050365;28;20025;-70
2022/02/24 00:49:28;;;;;;;13.63;4.40;;;8.40;82.00;;;;;;5049982;28;20029;-70
2022/02/24 00:51:54;;;;;;;10.18;3.00;;;8.40;82.30;;;;;;5047452;28;20480;-70
2022/02/24 00:54:19;;;;;;;9.02;2.67;;;8.40;82.60;;;;;;5047471;28;20106;-70
2022/02/24 00:56:45;;;;;;;10.27;3.63;;;8.40;82.80;;;;;;5044092;28;20107;-70
2022/02/24 00:59:10;;;;;;;11.52;3.40;;;8.40;82.80;;;;;;5050089;28;20017;-70
2022/02/24 01:01:36;;;;;;;11.50;3.05;;;8.40;83.10;;;;;;5048428;28;20497;-69
2022/02/24 01:04:01;;;;;;;9.27;3.20;;;8.40;83.20;;;;;;5043467;28;20041;-70
2022/02/24 01:06:27;;;;;;;12.18;3.75;;;8.40;83.30;;;;;;5040405;28;20021;-70
2022/02/24 01:08:52;;;;;;;6.85;2.33;;;8.40;83.50;;;;;;5044538;28;20041;-70
2022/02/24 01:11:18;;;;;;;9.50;3.47;;;8.40;83.70;;;;;;5043194;28;20067;-70
2022/02/24 01:13:43;;;;;;;16.40;3.88;;;8.40;83.70;;;;;;5044454;28;20068;-70
2022/02/24 01:16:09;;;;;;;12.40;3.50;;;8.40;83.90;;;;;;5046415;28;20111;-70
2022/02/24 01:18:35;;;;;;;10.85;3.40;;;8.40;83.90;;;;;;5046300;28;20538;-69
2022/02/24 01:21:00;;;;;;;10.52;3.50;;;8.40;83.80;;;;;;5043482;28;20029;-70
2022/02/24 01:23:26;;;;;;;10.48;3.30;;;8.40;83.90;;;;;;5037596;28;20021;-69
2022/02/24 01:25:52;;;;;;;7.85;3.35;;;8.40;84.00;;;;;;5044254;28;20435;-70
2022/02/24 01:28:17;;;;;;;10.35;3.92;;;8.40;84.00;;;;;;5045558;28;20400;-70
2022/02/24 01:30:43;;;;;;;7.80;2.78;;;8.40;83.90;;;;;;5045546;28;20453;-70
2022/02/24 01:33:08;;;;;;;14.45;3.63;;;8.40;83.90;;;;;;5041124;28;20412;-69
2022/02/24 01:35:34;;;;;;;10.65;2.85;;;8.40;83.90;;;;;;5042742;28;20035;-70
2022/02/24 01:37:59;;;;;;;9.77;3.63;;;8.40;83.70;;;;;;5041260;28;20044;-69
2022/02/24 01:40:25;;;;;;;14.48;3.47;;;8.40;83.80;;;;;;5048012;28;20405;-67
2022/02/24 01:42:50;;;;;;;10.23;4.13;;;8.40;84.00;;;;;;5038845;28;20063;-69
2022/02/24 01:45:16;;;;;;;13.57;3.95;;;8.40;83.90;;;;;;5042427;28;20025;-69
2022/02/24 01:47:42;;;;;;;9.40;3.72;;;8.40;83.90;;;;;;5039456;28;20033;-69
2022/02/24 01:50:11;;;;;;;8.88;3.13;;;8.40;84.10;;;;;;5042180;28;20029;-69
2022/02/24 01:52:37;;;;;;;10.52;3.78;;;8.40;84.10;;;;;;5043590;28;20025;-70
2022/02/24 01:55:03;;;;;;;10.02;3.58;;;8.30;84.20;;;;;;5040641;28;20030;-69
2022/02/24 01:57:29;;;;;;;11.00;4.78;;;8.30;84.30;;;;;;5043483;28;20067;-70
2022/02/24 01:59:55;;;;;;;11.07;4.18;;;8.30;84.30;;;;;;5037088;28;20479;-69
2022/02/24 02:02:21;;;;;;;14.88;3.83;;;8.30;84.80;;;;;;5045354;28;20071;-69
2022/02/24 02:04:46;;;;;;;8.95;3.10;;;8.30;83.90;;;;;;5040024;28;20021;-69
2022/02/24 02:07:12;;;;;;;8.95;3.80;;;8.30;83.90;;;;;;5041018;28;20037;-70
2022/02/24 02:09:39;;;;;;;12.00;3.72;;;8.30;84.00;;;;;;5044781;28;20075;-69
2022/02/24 02:12:05;;;;;;;10.68;3.13;;;8.30;83.80;;;;;;5032642;28;20025;-69
2022/02/24 02:14:31;;;;;;;10.40;2.70;;;8.20;83.70;;;;;;5038136;28;20025;-69
2022/02/24 02:16:58;;;;;;;9.80;3.22;;;8.20;83.70;;;;;;5045920;28;20048;-69
2022/02/24 02:19:24;;;;;;;12.02;3.15;;;8.20;83.60;;;;;;5040632;28;20374;-69
2022/02/24 02:21:49;;;;;;;11.20;2.95;;;8.20;83.40;;;;;;5041664;28;20025;-69
2022/02/24 02:24:15;;;;;;;10.02;3.00;;;8.20;83.30;;;;;;5035077;28;20026;-70
2022/02/24 02:26:41;;;;;;;11.57;3.00;;;8.20;83.10;;;;;;5043343;28;20074;-69
2022/02/24 02:29:10;;;;;;;10.70;4.68;;;8.20;82.90;;;;;;5045747;28;20025;-70
2022/02/24 02:31:36;;;;;;;8.93;3.08;;;8.20;82.90;;;;;;5044448;28;20032;-70
2022/02/24 02:34:08;;;;;;;9.18;2.83;;;8.10;82.70;;;;;;5043391;28;20080;-70
2022/02/24 02:36:35;;;;;;;13.73;4.20;;;8.20;82.40;;;;;;5041404;28;20032;-70
2022/02/24 02:39:03;;;;;;;10.10;2.80;;;8.20;82.40;;;;;;5042234;28;20577;-69
2022/02/24 02:41:33;;;;;;;10.68;2.83;;;8.20;82.20;;;;;;5044942;28;20076;-69
2022/02/24 02:44:00;;;;;;;15.23;3.28;;;8.20;82.00;;;;;;5049053;28;20049;-69
2022/02/24 02:46:26;;;;;;;10.35;2.67;;;8.20;82.10;;;;;;5039887;28;20053;-69
2022/02/24 02:48:51;;;;;;;11.07;2.58;;;8.20;81.80;;;;;;5040471;28;20465;-70
2022/02/24 02:51:17;;;;;;;11.45;2.83;;;8.20;81.40;;;;;;5040890;28;20033;-70
2022/02/24 02:53:43;;;;;;;13.77;2.67;;;8.20;81.40;;;;;;5040030;28;20037;-70
2022/02/24 02:56:08;;;;;;;12.80;2.58;;;8.20;81.30;;;;;;5046942;28;20115;-70
2022/02/24 02:58:34;;;;;;;10.35;2.72;;;8.20;80.70;;;;;;5043213;28;20496;-70
2022/02/24 03:01:00;;;;;;;12.15;2.70;;;8.20;80.80;;;;;;5045561;28;20586;-69
2022/02/24 03:03:25;;;;;;;13.75;2.45;;;8.20;81.00;;;;;;5037631;28;20048;-70
2022/02/24 03:05:51;;;;;;;12.85;2.85;;;8.20;81.20;;;;;;5045621;28;20044;-70
2022/02/24 03:08:17;;;;;;;9.55;2.65;;;8.20;80.80;;;;;;5048156;28;20039;-70
2022/02/24 03:10:43;;;;;;;15.48;2.40;;;8.20;80.90;;;;;;5048126;28;20041;-70
2022/02/24 03:13:09;;;;;;;11.80;2.28;;;8.20;80.80;;;;;;5047913;28;20036;-70
2022/02/24 03:15:34;;;;;;;9.43;2.10;;;8.20;80.60;;;;;;5046688;28;20037;-70
2022/02/24 03:18:00;;;;;;;10.40;2.58;;;8.20;80.80;;;;;;5039791;28;20021;-70
2022/02/24 03:20:30;;;;;;;9.82;2.58;;;8.20;80.80;;;;;;5045251;28;20039;-70
2022/02/24 03:22:56;;;;;;;7.82;2.33;;;8.20;81.00;;;;;;5046838;28;20119;-69
2022/02/24 03:25:22;;;;;;;13.30;2.88;;;8.20;81.00;;;;;;5044292;28;20057;-70
2022/02/24 03:27:48;;;;;;;14.15;2.53;;;8.20;81.30;;;;;;5041868;28;20049;-70
2022/02/24 03:30:13;;;;;;;12.65;3.00;;;8.20;81.50;;;;;;5040272;28;20040;-70
2022/02/24 03:32:41;;;;;;;10.15;2.47;;;8.20;81.90;;;;;;5048242;28;20029;-69
2022/02/24 03:35:06;;;;;;;12.80;3.22;;;8.10;82.00;;;;;;5045733;28;20025;-69
2022/02/24 03:37:32;;;;;;;11.48;3.05;;;8.20;82.20;;;;;;5043989;28;20098;-70
2022/02/24 03:39:58;;;;;;;18.80;3.33;;;8.10;82.40;;;;;;5045218;28;20028;-70
2022/02/24 03:42:24;;;;;;;12.60;3.38;;;8.10;82.50;;;;;;5043495;28;20050;-70
2022/02/24 03:44:50;;;;;;;10.10;3.03;;;8.10;82.90;;;;;;5044629;28;20021;-69
2022/02/24 03:47:15;;;;;;;13.50;2.53;;;8.10;83.10;;;;;;5043709;28;20026;-69
2022/02/24 03:49:41;;;;;;;8.75;2.80;;;8.10;83.30;;;;;;5049000;28;20104;-70
2022/02/24 03:52:07;;;;;;;12.15;3.30;;;8.10;83.70;;;;;;5048223;28;20112;-70
2022/02/24 03:54:32;;;;;;;15.95;3.20;;;8.10;84.00;;;;;;5046114;28;20021;-69
2022/02/24 03:56:58;;;;;;;11.57;3.25;;;8.00;84.20;;;;;;5049410;28;20488;-70
2022/02/24 03:59:24;;;;;;;9.93;2.40;;;8.00;84.10;;;;;;5051313;28;20052;-70
2022/02/24 04:01:49;;;;;;;11.27;2.53;;;8.00;84.30;;;;;;5047050;28;20493;-69
2022/02/24 04:04:15;;;;;;;12.07;2.70;;;8.00;84.10;;;;;;5043090;28;20041;-70
2022/02/24 04:06:41;;;;;;;12.57;2.97;;;8.00;84.00;;;;;;5049314;28;20501;-70
2022/02/24 04:09:07;;;;;;;10.55;2.90;;;8.00;84.10;;;;;;5047643;28;20128;-70
2022/02/24 04:11:32;;;;;;;8.27;2.85;;;8.00;84.30;;;;;;5049813;28;20396;-70
2022/02/24 04:13:58;;;;;;;16.35;3.33;;;8.00;84.50;;;;;;5051107;28;20384;-70
2022/02/24 04:16:23;;;;;;;9.93;2.90;;;8.00;84.90;;;;;;5051116;28;20145;-70
2022/02/24 04:18:49;;;;;;;10.50;3.00;;;8.00;85.10;;;;;;5046571;28;20037;-70
2022/02/24 04:21:14;;;;;;;11.65;3.30;;;8.00;85.30;;;;;;5050966;28;20097;-70
2022/02/24 04:23:40;;;;;;;16.40;3.38;;;7.90;85.50;;;;;;5048204;28;20025;-70
2022/02/24 04:26:05;;;;;;;12.63;3.28;;;7.90;85.80;;;;;;5050779;28;20036;-70
2022/02/24 04:28:31;;;;;;;11.90;4.00;;;7.90;86.00;;;;;;5046668;28;20028;-69
2022/02/24 04:30:56;;;;;;;14.68;4.18;;;7.90;86.10;;;;;;5050692;28;20025;-70
2022/02/24 04:33:22;;;;;;;12.80;3.30;;;7.90;86.50;;;;;;5051134;28;20029;-70
2022/02/24 04:35:48;;;;;;;11.75;3.70;;;7.90;86.80;;;;;;5049543;28;20039;-70
2022/02/24 04:38:13;;;;;;;13.23;3.60;;;7.90;87.10;;;;;;5049875;28;20028;-70
2022/02/24 04:40:39;;;;;;;13.20;4.65;;;7.80;87.40;;;;;;5044277;28;20029;-72
2022/02/24 04:43:04;;;;;;;13.75;4.00;;;7.90;87.60;;;;;;5047682;28;20013;-72
2022/02/24 04:45:30;;;;;;;15.93;4.03;;;7.90;88.00;;;;;;5049826;28;20036;-70
2022/02/24 04:47:55;;;;;;;14.57;4.05;;;7.90;88.00;;;;;;5045341;28;20026;-70
2022/02/24 04:50:21;;;;;;;15.55;4.85;;;7.90;88.20;;;;;;5047547;28;20389;-70
2022/02/24 04:52:46;;;;;;;10.90;4.38;;;7.90;88.30;;;;;;5050320;28;20037;-70
2022/02/24 04:55:12;;;;;;;11.70;3.47;;;7.90;88.30;;;;;;5047456;28;20043;-70
2022/02/24 04:57:38;;;;;;;12.85;3.55;;;7.90;88.10;;;;;;5050250;28;20443;-72
2022/02/24 05:00:08;;;;;;;14.85;3.30;;;7.90;88.10;;;;;;5049434;28;20489;-70
2022/02/24 05:02:33;;;;;;;;;;;7.90;88.00;;;;;;5050546;28;20032;-70
2022/02/24 05:04:59;;;;;;;11.45;3.22;;;7.90;88.10;;;;;;5050169;28;20289;-70
2022/02/24 05:07:24;;;;;;;14.63;4.25;;;7.80;88.80;;;;;;5050112;28;20021;-70
2022/02/24 05:09:50;;;;;;;13.43;4.35;;;7.90;89.00;;;;;;5048343;28;20152;-70
2022/02/24 05:12:15;;;;;;;12.25;3.58;;;7.80;88.90;;;;;;5047282;28;20095;-70
2022/02/24 05:14:41;;;;;;;15.82;3.17;;;7.90;89.10;;;;;;5047311;28;20053;-70
2022/02/24 05:17:06;;;;;;;12.27;3.22;;;7.90;89.10;;;;;;5047034;28;20235;-70
2022/02/24 05:19:32;;;;;;;10.30;2.95;;;7.90;89.30;;;;;;5061819;28;20359;-70
2022/02/24 05:21:58;;;;;;;13.48;3.40;;;7.90;89.30;;;;;;5044863;28;20111;-70
2022/02/24 05:24:24;;;;;;;13.95;4.15;;;7.80;89.30;;;;;;5048515;28;20040;-70
2022/02/24 05:26:49;;;;;;;13.18;4.10;;;7.80;89.40;;;;;;5045481;28;20023;-70
2022/02/24 05:29:15;;;;;;;13.52;3.58;;;7.90;89.70;;;;;;5048196;28;20025;-70
2022/02/24 05:31:40;;;;;;;15.20;3.97;;;7.80;89.80;;;;;;5048249;28;20060;-70
2022/02/24 05:34:06;;;;;;;11.90;3.65;;;7.90;89.80;;;;;;5044170;28;20053;-70
2022/02/24 05:36:31;;;;;;;15.35;4.03;;;7.90;89.90;;;;;;5048196;28;20024;-70
2022/02/24 05:38:57;;;;;;;12.77;3.67;;;7.90;90.00;;;;;;5048645;28;20017;-70
2022/02/24 05:41:24;;;;;;;15.10;3.53;;;7.90;90.10;;;;;;5048912;28;20488;-70
2022/02/24 05:43:51;;;;;;;15.38;3.58;;;7.80;90.10;;;;;;5049086;28;20017;-70
2022/02/24 05:46:17;;;;;;;12.13;3.15;;;7.90;90.10;;;;;;5049234;28;20048;-70
2022/02/24 05:48:43;;;;;;;11.35;2.72;;;7.90;90.10;;;;;;5049217;28;20060;-70
2022/02/24 05:51:10;;;;;;;16.40;3.60;;;7.90;90.10;;;;;;5047532;28;20384;-71
2022/02/24 05:53:37;;;;;;;13.52;3.60;;;7.80;90.20;;;;;;5048993;28;20028;-70
2022/02/24 05:56:03;;;;;;;20.23;4.38;;;7.80;90.60;;;;;;5044988;28;20167;-70
2022/02/24 05:58:28;;;;;;;13.60;3.00;;;7.80;90.40;;;;;;5043500;28;20017;-70
2022/02/24 06:00:54;;;;;;;14.27;4.22;;;7.80;90.30;;;;;;5046259;28;20036;-70
2022/02/24 06:03:19;;;;;;;14.50;3.08;;;7.80;90.20;;;;;;5046326;28;20087;-70
2022/02/24 06:05:46;;;;;;;11.63;3.00;;;7.80;90.30;;;;;;5043594;28;20401;-70
2022/02/24 06:08:11;;;;;;;18.45;3.08;;;7.80;90.20;;;;;;5045905;28;20025;-70
2022/02/24 06:10:37;;;;;;;13.98;3.33;;;7.90;90.20;;;;;;5048893;28;20385;-70
2022/02/24 06:13:02;;;;;;;17.75;3.33;;;7.80;90.10;;;;;;5048895;28;20104;-70
2022/02/24 06:15:28;;;;;;;9.82;2.70;;;7.90;90.20;;;;;;5045864;28;20028;-70
2022/02/24 06:17:53;;;;;;;16.90;4.25;;;7.80;90.10;;;;;;5048784;28;20021;-70
2022/02/24 06:20:19;;;;;;;7.65;3.03;;;7.90;90.30;;;;;;5048967;28;20513;-70
2022/02/24 06:22:49;;;;;;;13.30;2.75;;;7.80;90.20;;;;;;5048909;28;20033;-70
2022/02/24 06:25:14;;;;;;;10.88;2.10;;;7.80;90.20;;;;;;5048743;28;21504;-70
2022/02/24 06:27:40;;;;;;;11.05;2.75;;;7.80;90.30;;;;;;5044467;28;20069;-70
2022/02/24 06:30:06;;;;;;;15.82;3.20;;;7.80;90.50;;;;;;5032549;28;20033;-70
2022/02/24 06:32:32;;;;;;;10.80;2.67;;;7.80;90.40;;;;;;5032912;28;20038;-70
2022/02/24 06:34:57;;;;;;;15.18;3.05;;;7.80;90.40;;;;;;5031444;28;20037;-70
2022/02/24 06:37:23;;;;;;;9.82;2.80;;;7.80;90.40;;;;;;5032338;28;20079;-70
2022/02/24 06:39:49;;;;;;;10.23;2.10;;;7.80;90.40;;;;;;5032860;28;20021;-70
2022/02/24 06:42:14;;;;;;;16.20;2.92;;;7.80;90.50;;;;;;5032425;28;20053;-70
2022/02/24 06:44:40;;;;;;;7.60;2.15;;;7.80;90.60;;;;;;5031586;28;20393;-70
2022/02/24 06:47:06;;;;;;;11.45;2.17;;;7.80;90.60;;;;;;5032586;28;20033;-70
2022/02/24 06:49:31;;;;;;;13.93;3.28;;;7.80;90.70;;;;;;5032403;28;20018;-70
2022/02/24 06:51:58;;;;;;;15.07;2.42;;;7.80;90.80;;;;;;5031094;28;20099;-70
2022/02/24 06:54:25;;;;;;;11.82;2.70;;;7.80;90.80;;;;;;5032598;28;20048;-70
2022/02/24 06:56:50;;;;;;;11.38;2.40;;;7.80;90.80;;;;;;5032483;28;20033;-70
2022/02/24 06:59:16;;;;;;;11.50;2.95;;;7.80;91.00;;;;;;5031232;28;20024;-70
2022/02/24 07:01:42;;;;;;;9.98;2.88;;;7.70;91.10;;;;;;5039132;28;20027;-70
2022/02/24 07:04:08;;;;;;;8.80;2.50;;;7.70;91.30;;;;;;5052587;28;20021;-71
2022/02/24 07:06:33;;;;;;;7.03;2.45;;;7.70;91.40;;;;;;5052332;28;20117;-70
2022/02/24 07:08:59;;;;;;;13.82;2.80;;;7.70;91.60;;;;;;5052238;28;20449;-70
2022/02/24 07:11:25;;;;;;;13.88;3.35;;;7.70;91.60;;;;;;5052367;28;20025;-70
2022/02/24 07:13:50;;;;;;;14.10;2.78;;;7.70;91.70;;;;;;5052277;28;20047;-70
2022/02/24 07:16:16;;;;;;;11.98;2.60;;;7.70;91.70;;;;;;5052214;28;20033;-70
2022/02/24 07:18:41;;;;;;;7.60;2.50;;;7.70;91.80;;;;;;5050927;28;20115;-70
2022/02/24 07:21:08;;;;;;;12.25;3.25;;;7.70;91.80;;;;;;5052021;28;20033;-70
2022/02/24 07:23:34;;;;;;;9.25;2.30;;;7.60;91.80;;;;;;5054304;28;20016;-70
2022/02/24 07:26:00;;;;;;;12.85;2.13;;;7.70;91.60;;;;;;5053564;28;20036;-70
2022/02/24 07:28:26;;;;;;;8.35;2.08;;;7.70;91.50;;;;;;5051792;28;20029;-70
2022/02/24 07:30:51;;;;;;;7.20;1.88;;;7.80;91.50;;;;;;5056076;28;20090;-70
2022/02/24 07:33:17;;;;;;;11.18;2.08;;;7.80;91.20;;;;;;5054775;28;20429;-70
2022/02/24 07:35:43;;;;;;;9.32;1.73;;;7.80;91.30;;;;;;5053382;28;20550;-69
2022/02/24 07:38:08;;;;;;;9.10;1.92;;;7.80;91.00;;;;;;5063206;28;20024;-70
2022/02/24 07:40:34;;;;;;;5.18;1.60;;;7.90;90.90;;;;;;5054087;28;20021;-70
2022/02/24 07:42:59;;;;;;;10.30;1.83;;;7.80;90.80;;;;;;5053733;28;20049;-70
2022/02/24 07:45:25;;;;;;;4.72;1.52;;;7.90;90.80;;;;;;5052256;28;20033;-70
2022/02/24 07:47:50;;;;;;;8.45;2.05;;;7.90;91.00;;;;;;5053878;28;20025;-70
2022/02/24 07:50:16;;;;;;;7.00;1.80;;;7.80;91.00;;;;;;5051428;28;20052;-70
2022/02/24 07:52:43;;;;;;;9.65;1.75;;;7.90;91.20;;;;;;5061437;28;20025;-70
2022/02/24 07:55:10;;;;;;;7.68;2.10;;;7.80;91.30;;;;;;5052452;28;20100;-70
2022/02/24 07:57:40;;;;;;;9.88;2.20;;;7.80;91.50;;;;;;5050820;28;20025;-70
2022/02/24 08:00:13;;;;;;;13.40;2.42;;;7.80;91.70;;;;;;5053072;28;20013;-70
2022/02/24 08:02:39;;;;;;;8.52;2.55;;;7.70;91.90;;;;;;5052373;28;20032;-70
2022/02/24 08:05:05;;;;;;;7.22;2.25;;;7.70;92.20;;;;;;5051541;28;20029;-69
2022/02/24 08:07:30;;;;;;;12.18;2.50;;;7.70;92.20;;;;;;5052262;28;20044;-70
2022/02/24 08:09:56;;;;;;;7.55;2.33;;;7.70;92.20;;;;;;5052802;28;20021;-71
2022/02/24 08:12:39;;;;;;;11.05;3.53;;;7.70;92.60;;;;;;5054348;28;20539;-70
2022/02/24 08:15:06;;;;;;;9.68;1.95;;;7.70;92.60;;;;;;5054679;28;20029;-70
2022/02/24 08:17:32;;;;;;;8.45;2.22;;;7.70;92.10;;;;;;5054982;28;20483;-71
2022/02/24 08:19:58;;;;;;;10.70;2.15;;;7.80;91.70;;;;;;5054998;28;20107;-71
2022/02/24 08:22:24;;;;;;;12.32;2.38;;;7.80;91.60;;;;;;5037225;28;20119;-70
2022/02/24 08:24:50;;;;;;;9.07;2.42;;;7.90;91.10;;;;;;5054971;28;20428;-71
2022/02/24 08:27:15;;;;;;;12.85;2.45;;;7.90;90.90;;;;;;5050749;28;20481;-70
2022/02/24 08:29:41;;;;;;;13.27;2.75;;;7.90;90.70;;;;;;5050253;28;20072;-73
2022/02/24 08:32:07;;;;;;;11.35;2.47;;;7.90;90.50;;;;;;5053389;28;20060;-72
2022/02/24 08:34:32;;;;;;;10.52;2.50;;;7.90;90.60;;;;;;5054607;28;20083;-71
2022/02/24 08:36:58;;;;;;;10.30;1.92;;;8.00;90.50;;;;;;5069564;28;20021;-71
2022/02/24 08:39:23;;;;;;;12.93;2.42;;;8.00;90.50;;;;;;5070223;28;20091;-71
2022/02/24 08:41:49;;;;;;;9.50;2.08;;;8.00;90.40;;;;;;5054381;28;20049;-71
2022/02/24 08:44:16;;;;;;;6.38;2.05;;;8.10;90.30;;;;;;5054515;28;20025;-71
2022/02/24 08:46:42;;;;;;;8.55;1.83;;;8.10;90.20;;;;;;5053263;28;20389;-71
2022/02/24 08:49:12;;;;;;;8.10;2.20;;;8.10;90.10;;;;;;5046311;28;20032;-72
2022/02/24 08:51:38;;;;;;;;;;;8.10;89.80;;;;;;5047693;28;20039;-72
2022/02/24 08:54:03;;;;;;;8.95;2.45;;;8.10;89.70;;;;;;5052122;28;19909;-72
2022/02/24 08:56:29;;;;;;;8.85;1.40;;;8.10;90.00;;;;;;5052655;28;20481;-72
2022/02/24 08:58:54;;;;;;;13.40;2.05;;;8.20;89.20;;;;;;5052760;28;20009;-71
2022/02/24 09:01:20;;;;;;;11.43;2.13;;;8.30;88.60;;;;;;5052635;28;20025;-71
2022/02/24 09:03:45;;;;;;;11.93;2.03;;;8.40;88.00;;;;;;5052774;28;20461;-71
2022/02/24 09:06:11;;;;;;;9.95;1.80;;;8.50;87.70;;;;;;5052287;28;20025;-72
2022/02/24 09:08:37;;;;;;;11.25;1.80;;;8.50;87.60;;;;;;5052651;28;20028;-71
2022/02/24 09:11:03;;;;;;;8.00;1.75;;;8.50;86.80;;;;;;5052277;28;20029;-71
2022/02/24 09:13:28;;;;;;;9.30;1.92;;;8.50;86.90;;;;;;5048714;28;20418;-72
2022/02/24 09:15:54;;;;;;;7.70;1.50;;;8.50;86.50;;;;;;5040110;28;20030;-71
2022/02/24 09:18:20;;;;;;;8.60;1.95;;;8.50;86.10;;;;;;5034077;28;20055;-72
2022/02/24 09:20:45;;;;;;;10.90;2.10;;;8.60;86.80;;;;;;5034068;28;20017;-71
2022/02/24 09:23:11;;;;;;;7.65;2.88;;;8.50;86.60;;;;;;5033597;28;20061;-71
2022/02/24 09:25:36;;;;;;;8.45;1.50;;;8.50;86.20;;;;;;5033805;28;20050;-71
2022/02/24 09:28:03;;;;;;;11.95;1.67;;;8.60;85.50;;;;;;5041574;28;20025;-71
2022/02/24 09:30:29;;;;;;;8.95;1.55;;;8.70;86.00;;;;;;5053750;28;20485;-71
2022/02/24 09:32:55;;;;;;;7.85;2.13;;;8.80;85.70;;;;;;5052277;28;20044;-72
2022/02/24 09:35:22;;;;;;;11.82;1.65;;;8.90;86.10;;;;;;5053624;28;20021;-71
2022/02/24 09:37:48;;;;;;;11.32;1.77;;;9.10;85.10;;;;;;5053488;28;20119;-71
2022/02/24 09:40:14;;;;;;;10.63;2.10;;;9.20;83.70;;;;;;5053448;28;20476;-71
2022/02/24 09:42:41;;;;;;;7.63;1.58;;;9.10;84.00;;;;;;5049387;28;20397;-72
2022/02/24 09:45:08;;;;;;;10.15;2.38;;;9.10;83.90;;;;;;5062694;28;20013;-72
2022/02/24 09:47:37;;;;;;;8.45;1.85;;;9.10;83.20;;;;;;5052051;28;20028;-72
2022/02/24 09:50:03;;;;;;;9.85;1.95;;;9.20;84.50;;;;;;5051794;28;20504;-72
2022/02/24 09:52:29;;;;;;;11.00;2.30;;;9.20;84.00;;;;;;5051512;28;20047;-72
2022/02/24 09:54:54;;;;;;;10.02;1.92;;;9.30;83.90;;;;;;5049436;28;20037;-71
2022/02/24 09:57:20;;;;;;;8.05;1.63;;;9.20;83.40;;;;;;5033203;28;20056;-71
2022/02/24 09:59:45;;;;;;;9.02;1.35;;;9.30;83.30;;;;;;5051542;28;20412;-72
2022/02/24 10:02:15;;;;;;;7.57;1.52;;;9.30;84.40;;;;;;5051883;28;20096;-71
2022/02/24 10:04:59;;;;;;;;;;;9.40;83.60;;;;;;5051997;28;20013;-72
2022/02/24 10:07:25;;;;;;;10.40;1.85;;;9.40;83.20;;;;;;5049197;28;19905;-71
2022/02/24 10:09:51;;;;;;;10.95;2.10;;;9.50;83.00;;;;;;5051306;28;20025;-71
2022/02/24 10:12:17;;;;;;;10.27;1.77;;;9.60;82.50;;;;;;5051417;28;20539;-71
2022/02/24 10:14:42;;;;;;;8.68;2.42;;;9.70;82.40;;;;;;5051076;28;20432;-72
2022/02/24 10:17:08;;;;;;;10.68;1.63;;;9.70;81.90;;;;;;5052503;28;20041;-71
2022/02/24 10:19:43;;;;;;;9.43;1.55;;;9.90;82.50;;;;;;5052863;28;20075;-72
2022/02/24 10:22:09;;;;;;;7.43;1.58;;;10.10;81.80;;;;;;5051431;28;20492;-72
2022/02/24 10:24:36;;;;;;;8.05;1.85;;;10.30;80.90;;;;;;5068001;28;20017;-72
2022/02/24 10:27:21;;;;;;;7.72;1.65;;;10.60;80.20;;;;;;5050938;28;20021;-71
2022/02/24 10:30:05;;;;;;;11.77;1.95;;;11.00;79.60;;;;;;5064885;28;20444;-71
2022/02/24 10:32:36;;;;;;;6.15;1.63;;;11.30;77.30;;;;;;5047887;28;20358;-71
2022/02/24 10:35:18;;;;;;;14.75;2.30;;;11.30;76.80;;;;;;5051079;28;20021;-72
2022/02/24 10:37:50;;;;;;;7.75;1.80;;;12.60;76.40;;;;;;5051074;28;20080;-72
2022/02/24 10:40:19;;;;;;;6.32;1.50;;;14.80;71.10;;;;;;5049478;28;20494;-71
2022/02/24 10:42:44;;;;;;;10.63;1.90;;;16.70;64.00;;;;;;5050941;28;20497;-72
2022/02/24 10:45:16;;;;;;;9.52;2.55;;;18.10;59.90;;;;;;5049359;28;20029;-72
2022/02/24 10:47:59;;;;;;;9.40;1.98;;;19.10;54.60;;;;;;5049063;28;20036;-72
2022/02/24 10:51:05;;;;;;;9.38;1.50;;;20.00;51.80;;;;;;5050789;28;20036;-72
2022/02/24 10:53:33;;;;;;;7.95;1.55;;;20.30;50.90;;;;;;5049906;28;20105;-72
2022/02/24 10:56:05;;;;;;;6.38;1.42;;;20.70;49.40;;;;;;5047654;28;20544;-73
2022/02/24 10:58:42;;;;;;;8.98;2.20;;;21.30;47.60;;;;;;5050549;28;20029;-73
2022/02/24 11:01:13;;;;;;;6.53;1.73;;;21.80;47.00;;;;;;5050807;28;20017;-73
2022/02/24 11:03:41;;;;;;;6.75;1.15;;;22.30;45.10;;;;;;5048211;28;20416;-73
2022/02/24 11:06:08;;;;;;;6.57;1.42;;;23.20;44.20;;;;;;5047706;28;20029;-72
2022/02/24 11:08:34;;;;;;;5.93;1.73;;;24.10;43.30;;;;;;5050386;28;20021;-73
2022/02/24 11:11:01;;;;;;;4.47;1.45;;;24.90;41.50;;;;;;5048844;28;20095;-73
2022/02/24 11:13:29;;;;;;;6.00;1.15;;;25.70;40.30;;;;;;5048364;28;20036;-73
2022/02/24 11:15:56;;;;;;;11.40;1.88;;;26.00;39.30;;;;;;5047622;28;20088;-73
2022/02/24 11:18:22;;;;;;;5.47;1.30;;;26.90;38.40;;;;;;5045947;28;20528;-73
2022/02/24 11:20:49;;;;;;;7.45;1.45;;;27.70;37.80;;;;;;5047014;28;20036;-73
2022/02/24 11:23:14;;;;;;;4.88;1.50;;;28.70;36.00;;;;;;5048067;28;20024;-73
2022/02/24 11:26:06;;;;;;;5.85;1.35;;;28.70;35.90;;;;;;5047338;28;20029;-73
2022/02/24 11:28:38;;;;;;;4.45;1.50;;;27.30;34.80;;;;;;5037467;28;20064;-73
2022/02/24 11:31:15;;;;;;;5.00;1.40;;;24.90;37.50;;;;;;5047324;28;20435;-73
2022/02/24 11:33:41;;;;;;;4.80;1.50;;;25.00;38.50;;;;;;5048189;28;20040;-73
2022/02/24 11:36:16;;;;;;;4.80;1.13;;;24.80;38.00;;;;;;5052000;28;20029;-73
2022/02/24 11:39:02;;;;;;;3.35;1.10;;;24.30;38.70;;;;;;5052087;28;20030;-73
2022/02/24 11:41:28;;;;;;;3.72;0.98;;;24.00;38.80;;;;;;5051456;28;20428;-73
2022/02/24 11:43:54;;;;;;;6.30;1.20;;;22.00;40.50;;;;;;5051909;28;20029;-73
2022/02/24 11:46:20;;;;;;;3.08;1.02;;;20.20;43.30;;;;;;5051964;28;20381;-73
2022/02/24 11:48:46;;;;;;;7.32;1.55;;;19.40;45.80;;;;;;5052069;28;20032;-73
2022/02/24 11:51:19;;;;;;;4.28;1.02;;;18.90;46.90;;;;;;5050360;28;20040;-73
2022/02/24 11:53:48;;;;;;;3.67;1.23;;;18.60;47.50;;;;;;5050224;28;20519;-73
2022/02/24 11:56:15;;;;;;;;;;;17.90;48.10;;;;;;5065776;28;20031;-73
2022/02/24 11:59:01;;;;;;;5.38;0.90;;;17.40;49.60;;;;;;5050058;28;20006;-73
2022/02/24 12:01:32;;;;;;;5.38;1.50;;;17.50;50.70;;;;;;5050189;28;20017;-73
2022/02/24 12:03:58;;;;;;;3.38;0.75;;;17.30;51.00;;;;;;5050290;28;20021;-72
2022/02/24 12:06:37;;;;;;;8.30;1.80;;;17.10;51.30;;;;;;5049870;28;20103;-72
2022/02/24 12:09:23;;;;;;;5.05;1.17;;;17.80;51.40;;;;;;5052731;28;20025;-72
2022/02/24 12:11:50;;;;;;;2.80;0.65;;;18.70;49.40;;;;;;5051837;28;20023;-72
2022/02/24 12:14:19;;;;;;;4.25;1.00;;;19.30;48.70;;;;;;5057768;28;20017;-72
2022/02/24 12:17:08;;;;;;;7.03;1.92;;;19.90;47.00;;;;;;5062840;28;20451;-72
2022/02/24 12:19:49;;;;;;;3.95;1.02;;;20.40;45.20;;;;;;5053388;28;20095;-72
2022/02/24 12:22:22;;;;;;;3.72;0.90;;;21.20;45.30;;;;;;5052290;28;20025;-73
2022/02/24 12:24:50;;;;;;;3.47;1.00;;;21.80;43.30;;;;;;5053279;28;20071;-72
2022/02/24 12:27:26;;;;;;;3.78;0.73;;;21.50;42.90;;;;;;5065546;28;20025;-72
2022/02/24 12:30:25;;;;;;;4.38;0.85;;;20.10;44.30;;;;;;5045021;28;20017;-73
2022/02/24 12:32:58;;;;;;;2.92;0.90;;;18.50;47.50;;;;;;5052353;28;20029;-72
2022/02/24 12:35:26;;;;;;;3.53;0.80;;;17.20;51.10;;;;;;5052813;28;20093;-72
2022/02/24 12:37:52;;;;;;;5.13;1.25;;;16.70;52.00;;;;;;5054523;28;20029;-72
2022/02/24 12:40:38;;;;;;;4.35;0.90;;;16.10;53.80;;;;;;5054757;28;20420;-72
2022/02/24 12:43:08;;;;;;;6.40;1.02;;;15.40;55.30;;;;;;5052577;28;20033;-72
2022/02/24 12:45:35;;;;;;;4.88;0.80;;;14.80;56.60;;;;;;5053260;28;20025;-72
2022/02/24 12:48:03;;;;;;;6.53;1.40;;;14.40;58.40;;;;;;5054496;28;20501;-71
2022/02/24 12:50:36;;;;;;;5.07;1.60;;;14.20;59.90;;;;;;5052898;28;20145;-72